Terminal Aerodrome Forecast
Issued by NWS

Home | Current Version | Previous Version | Graphics & Text | Print | Product List | Glossary Off
Versions: 1 2 3 4 5 6 7 8 9 10 11 12 13

328
FTUS43 KICT 181730
TAFRSL
TAF
KRSL 181730Z 1818/1918 19014G22KT P6SM SCT080 BKN200
     FM190400 18010KT 6SM BR OVC015
     FM190900 17008KT 3SM BR OVC003=

USA.gov is the U.S. government's official web portal to all federal, state and local government web resources and services.